Time;durP1;ratioP1;P1;durP2;ratioP2;P2;SDS_P1;SDS_P2;PMS_P1;PMS_P2;Temp;Humidity;BMP_temperature;BMP_pressure;BME280_temperature;BME280_humidity;BME280_pressure;Samples;Min_cycle;Max_cycle;Signal;HPM_P1;HPM_P2
2023/09/05 00:00:05;;;;;;;5.60;4.45;;;;;;;20.15;61.53;101316.97;5010007;28;96997;-79
2023/09/05 00:02:31;;;;;;;7.70;3.90;;;;;;;20.12;61.52;101320.66;5008109;28;97279;-78
2023/09/05 00:04:57;;;;;;;7.30;4.47;;;;;;;20.11;61.36;101315.44;5011070;28;98715;-79
2023/09/05 00:07:23;;;;;;;13.75;4.38;;;;;;;20.13;61.54;101311.75;5011010;28;96800;-79
2023/09/05 00:09:49;;;;;;;7.65;5.20;;;;;;;20.04;61.76;101319.41;5010664;28;97183;-79
2023/09/05 00:12:14;;;;;;;7.15;4.60;;;;;;;19.98;61.77;101312.59;5011297;28;98668;-78
2023/09/05 00:14:40;;;;;;;9.40;4.57;;;;;;;20.00;61.87;101325.88;5010910;28;98575;-78
2023/09/05 00:17:06;;;;;;;7.53;3.90;;;;;;;19.99;61.98;101330.34;5011466;28;96844;-78
2023/09/05 00:19:31;;;;;;;12.32;4.70;;;;;;;19.89;62.13;101319.31;5010618;28;97429;-78
2023/09/05 00:21:57;;;;;;;6.45;4.18;;;;;;;19.86;62.09;101322.16;5010611;28;98646;-78
2023/09/05 00:24:37;;;;;;;14.32;4.55;;;;;;;19.91;62.10;101324.59;5011912;28;98778;-79
2023/09/05 00:27:09;;;;;;;11.45;5.53;;;;;;;19.82;62.15;101325.97;5000917;28;96893;-78
2023/09/05 00:29:35;;;;;;;11.25;4.90;;;;;;;19.81;62.23;101318.94;5009342;28;96969;-79
2023/09/05 00:32:02;;;;;;;13.98;4.45;;;;;;;19.66;62.28;101301.13;4999265;28;98995;-79
2023/09/05 00:34:35;;;;;;;10.50;5.15;;;;;;;19.72;62.16;101308.78;5009352;28;99086;-79
2023/09/05 00:37:01;;;;;;;13.05;4.82;;;;;;;19.72;62.21;101324.75;5011832;28;96708;-78
2023/09/05 00:39:30;;;;;;;10.80;4.25;;;;;;;19.67;62.66;101313.53;5014571;28;96796;-79
2023/09/05 00:41:56;;;;;;;9.27;4.35;;;;;;;19.61;62.65;101308.50;5014268;28;98389;-79
2023/09/05 00:44:26;;;;;;;10.77;5.45;;;;;;;19.62;62.39;101307.56;5001114;28;98588;-78
2023/09/05 00:46:52;;;;;;;9.40;4.38;;;;;;;19.62;62.24;101310.22;5014404;28;96720;-78
2023/09/05 00:49:22;;;;;;;8.65;4.53;;;;;;;19.59;62.59;101316.56;5013638;28;97853;-78
2023/09/05 00:51:50;;;;;;;8.65;5.15;;;;;;;19.49;62.65;101302.06;5003323;28;100735;-78
2023/09/05 00:54:17;;;;;;;9.55;5.15;;;;;;;19.40;62.93;101287.47;5010730;28;98645;-78
2023/09/05 00:56:43;;;;;;;8.38;4.70;;;;;;;19.38;62.94;101278.69;5008091;28;96817;-78
2023/09/05 00:59:10;;;;;;;11.52;5.10;;;;;;;19.38;63.04;101278.69;5012203;28;97023;-78
2023/09/05 01:01:35;;;;;;;11.65;5.13;;;;;;;19.34;62.85;101276.28;5013510;28;99002;-79
2023/09/05 01:04:01;;;;;;;8.40;5.20;;;;;;;19.38;63.10;101284.03;5013953;28;98273;-78
2023/09/05 01:07:03;;;;;;;10.23;5.05;;;;;;;19.34;63.01;101282.47;5013907;28;96824;-79
2023/09/05 01:09:51;;;;;;;8.75;5.18;;;;;;;19.30;63.26;101288.06;5012350;28;97506;-78
2023/09/05 01:12:17;;;;;;;11.60;5.35;;;;;;;19.26;63.33;101275.84;5012558;28;99066;-78
2023/09/05 01:14:42;;;;;;;11.05;4.80;;;;;;;19.27;63.14;101285.56;5013845;28;98601;-79
2023/09/05 01:17:08;;;;;;;12.45;4.75;;;;;;;19.21;63.10;101279.63;5014668;28;96798;-78
2023/09/05 01:19:37;;;;;;;10.32;5.35;;;;;;;19.14;63.17;101270.28;5011598;28;97325;-79
2023/09/05 01:22:24;;;;;;;11.48;5.05;;;;;;;19.19;63.11;101275.34;5012114;28;99289;-78
2023/09/05 01:24:50;;;;;;;10.40;5.13;;;;;;;19.15;63.11;101269.31;5013017;28;99227;-78
2023/09/05 01:27:19;;;;;;;13.65;5.47;;;;;;;19.13;63.34;101273.88;5014254;28;96760;-79
2023/09/05 01:29:46;;;;;;;12.73;5.20;;;;;;;19.11;63.32;101273.09;5011607;28;97085;-79
2023/09/05 01:32:11;;;;;;;8.25;4.85;;;;;;;19.07;63.27;101266.22;5012444;28;98630;-78
2023/09/05 01:34:38;;;;;;;12.55;5.78;;;;;;;19.08;63.16;101275.94;5009480;28;100102;-78
2023/09/05 01:37:05;;;;;;;16.00;5.68;;;;;;;19.06;63.10;101259.19;5002365;28;97015;-78
2023/09/05 01:39:31;;;;;;;11.65;5.32;;;;;;;19.02;63.29;101251.44;5013305;28;96808;-78
2023/09/05 01:41:58;;;;;;;9.23;4.60;;;;;;;18.98;63.02;101246.28;5003611;28;99114;-78
2023/09/05 01:44:23;;;;;;;8.50;5.55;;;;;;;19.05;63.19;101267.25;5012277;28;98285;-78
2023/09/05 01:46:49;;;;;;;11.13;5.15;;;;;;;19.01;63.19;101271.88;5008940;28;97627;-79
2023/09/05 01:49:14;;;;;;;16.77;6.72;;;;;;;18.93;63.47;101280.25;5008084;28;97372;-78
2023/09/05 01:51:40;;;;;;;11.45;5.00;;;;;;;18.87;63.79;101279.75;5012554;28;99099;-78
2023/09/05 01:54:06;;;;;;;10.07;5.70;;;;;;;18.86;63.87;101286.88;5011858;28;100513;-78
2023/09/05 01:56:31;;;;;;;15.15;6.32;;;;;;;18.83;63.96;101283.53;5013510;28;97271;-78
2023/09/05 01:58:57;;;;;;;9.63;6.05;;;;;;;18.82;64.03;101285.31;5011895;28;98058;-78
2023/09/05 02:01:23;;;;;;;12.35;5.40;;;;;;;18.77;64.24;101296.19;5011036;28;100823;-78
2023/09/05 02:03:48;;;;;;;11.95;5.90;;;;;;;18.76;64.11;101290.94;5013891;28;99049;-79
2023/09/05 02:06:14;;;;;;;9.82;5.85;;;;;;;18.72;63.97;101284.03;4997449;28;97039;-79
2023/09/05 02:08:40;;;;;;;10.93;5.72;;;;;;;18.73;63.97;101283.09;5006983;28;97334;-78
2023/09/05 02:11:06;;;;;;;10.25;5.68;;;;;;;18.72;64.16;101284.03;5010012;28;101140;-78
2023/09/05 02:13:31;;;;;;;10.10;5.07;;;;;;;18.67;64.25;101284.28;5011381;28;98536;-78
2023/09/05 02:15:57;;;;;;;13.60;5.43;;;;;;;18.63;64.18;101276.56;5011568;28;96946;-79
2023/09/05 02:18:22;;;;;;;10.30;5.53;;;;;;;18.63;64.22;101281.88;5011470;28;96812;-78
2023/09/05 02:20:48;;;;;;;11.98;5.13;;;;;;;18.60;64.26;101280.22;5010489;28;100657;-79
2023/09/05 02:23:14;;;;;;;10.45;6.00;;;;;;;18.61;64.28;101286.41;5012733;28;97493;-78
2023/09/05 02:25:39;;;;;;;15.02;5.70;;;;;;;18.59;64.24;101282.97;5011895;28;96961;-78
2023/09/05 02:28:05;;;;;;;13.00;6.25;;;;;;;18.56;64.30;101289.31;5013264;28;96764;-78
2023/09/05 02:30:31;;;;;;;12.80;6.13;;;;;;;18.59;64.40;101290.94;5012307;28;99520;-78
2023/09/05 02:32:57;;;;;;;13.40;5.28;;;;;;;18.57;64.04;101292.84;5007986;28;100076;-78
2023/09/05 02:35:27;;;;;;;14.20;5.63;;;;;;;18.52;64.13;101285.94;4997713;28;96822;-78
2023/09/05 02:37:54;;;;;;;10.35;5.18;;;;;;;18.55;64.25;101290.25;5010982;28;97445;-79
2023/09/05 02:40:20;;;;;;;9.13;5.88;;;;;;;18.44;64.19;101281.97;5012447;28;98798;-78
2023/09/05 02:42:45;;;;;;;14.82;5.90;;;;;;;18.41;64.30;101285.63;5010502;28;97858;-78
2023/09/05 02:45:12;;;;;;;12.80;5.78;;;;;;;18.42;64.67;101284.72;4995447;28;96968;-79
2023/09/05 02:47:38;;;;;;;15.02;5.88;;;;;;;18.38;64.28;101283.13;5012257;28;96857;-78
2023/09/05 02:50:04;;;;;;;14.18;5.88;;;;;;;18.35;64.39;101274.47;5010547;28;100379;-78
2023/09/05 02:52:31;;;;;;;12.98;5.82;;;;;;;18.31;64.25;101276.44;4994207;28;100172;-78
2023/09/05 02:54:57;;;;;;;10.18;5.93;;;;;;;18.30;64.84;101285.34;5011511;28;96818;-79
2023/09/05 02:57:23;;;;;;;9.57;6.20;;;;;;;18.28;64.73;101280.09;5011159;28;96880;-78
2023/09/05 02:59:52;;;;;;;8.82;5.53;;;;;;;18.25;64.86;101274.09;5010375;28;98562;-78
2023/09/05 03:02:18;;;;;;;11.48;5.35;;;;;;;18.27;64.93;101272.22;5010796;28;100548;-78
2023/09/05 03:04:43;;;;;;;11.93;6.43;;;;;;;18.17;64.77;101265.63;5011207;28;96781;-78
2023/09/05 03:07:09;;;;;;;10.63;5.72;;;;;;;18.20;64.95;101281.41;5013027;28;97069;-78
2023/09/05 03:09:34;;;;;;;12.18;6.43;;;;;;;18.16;65.11;101278.06;5011271;28;98813;-79
2023/09/05 03:12:01;;;;;;;11.23;5.82;;;;;;;18.12;64.97;101271.16;5012168;28;98079;-78
2023/09/05 03:14:26;;;;;;;11.25;5.78;;;;;;;18.13;65.16;101282.69;5010964;28;96934;-78
2023/09/05 03:16:52;;;;;;;11.73;5.65;;;;;;;18.07;65.33;101279.38;5011218;28;97578;-78
2023/09/05 03:19:21;;;;;;;12.50;7.22;;;;;;;18.07;65.30;101283.84;5009809;28;100891;-78
2023/09/05 03:21:47;;;;;;;8.82;5.95;;;;;;;18.05;65.13;101294.53;4992602;28;100006;-78
2023/09/05 03:24:18;;;;;;;12.52;6.53;;;;;;;17.96;65.42;101286.19;5010321;28;96793;-78
2023/09/05 03:26:48;;;;;;;12.60;5.45;;;;;;;17.98;65.56;101287.81;5011820;28;97814;-78
2023/09/05 03:29:14;;;;;;;12.73;6.27;;;;;;;18.00;65.45;101295.69;5009660;28;100367;-78
2023/09/05 03:31:40;;;;;;;9.98;6.15;;;;;;;17.94;65.60;101270.31;5011584;28;98579;-78
2023/09/05 03:34:08;;;;;;;13.40;8.48;;;;;;;17.93;65.55;101287.19;5000123;28;97228;-78
2023/09/05 03:36:35;;;;;;;10.63;8.77;;;;;;;17.96;65.40;101292.34;5010738;28;97368;-78
2023/09/05 03:39:00;;;;;;;22.08;9.95;;;;;;;17.88;65.67;101279.44;5009327;28;100313;-78
2023/09/05 03:41:26;;;;;;;14.10;12.35;;;;;;;17.84;65.71;101277.88;5010741;28;99003;-77
2023/09/05 03:43:51;;;;;;;14.95;12.45;;;;;;;17.89;65.54;101290.94;5010134;28;96929;-78
2023/09/05 03:46:17;;;;;;;19.70;12.27;;;;;;;17.85;65.40;101287.56;5011897;28;96825;-78
2023/09/05 03:48:42;;;;;;;18.30;11.68;;;;;;;17.87;65.29;101296.31;5010157;28;99335;-78
2023/09/05 03:51:08;;;;;;;18.42;14.77;;;;;;;17.87;65.23;101291.00;5011264;28;98657;-78
2023/09/05 03:53:33;;;;;;;9.30;6.13;;;;;;;17.87;65.32;101291.00;5011226;28;96603;-78
2023/09/05 03:55:59;;;;;;;12.95;6.70;;;;;;;17.85;65.29;101298.19;5010356;28;97182;-78
2023/09/05 03:58:25;;;;;;;11.35;7.18;;;;;;;17.77;65.56;101279.09;5009204;28;100683;-78
2023/09/05 04:00:50;;;;;;;15.38;9.45;;;;;;;17.76;65.20;101280.00;5009416;28;98596;-78
2023/09/05 04:03:16;;;;;;;13.07;8.80;;;;;;;17.75;65.35;101285.41;5010982;28;96813;-78
2023/09/05 04:05:42;;;;;;;14.98;9.25;;;;;;;17.73;65.60;101282.81;5001508;28;96943;-78
2023/09/05 04:08:09;;;;;;;11.90;9.15;;;;;;;17.72;65.67;101289.06;5009230;28;100589;-78
2023/09/05 04:10:34;;;;;;;15.07;9.32;;;;;;;17.73;66.03;101296.09;5010224;28;98527;-78
2023/09/05 04:13:00;;;;;;;16.90;9.80;;;;;;;17.74;65.83;101300.44;5002652;28;96779;-78
2023/09/05 04:15:26;;;;;;;15.35;9.77;;;;;;;17.72;65.98;101291.72;5011650;28;98385;-79
2023/09/05 04:17:51;;;;;;;13.43;10.98;;;;;;;17.65;65.65;101283.19;5010543;28;98960;-78
2023/09/05 04:20:18;;;;;;;16.38;10.75;;;;;;;17.71;65.87;101295.28;5010126;28;98265;-78
2023/09/05 04:22:44;;;;;;;11.40;10.18;;;;;;;17.62;65.61;101278.00;5011132;28;96638;-78
2023/09/05 04:25:09;;;;;;;16.25;10.13;;;;;;;17.53;66.24;101286.44;5007426;28;96848;-78
2023/09/05 04:27:36;;;;;;;16.00;10.63;;;;;;;17.62;65.85;101287.78;5010553;28;98750;-78
2023/09/05 04:30:02;;;;;;;17.85;12.32;;;;;;;17.60;66.10;101287.88;5008961;28;100386;-78
2023/09/05 04:32:34;;;;;;;12.85;6.57;;;;;;;17.63;66.34;101287.72;5010961;28;96780;-78
2023/09/05 04:35:01;;;;;;;16.13;7.78;;;;;;;17.62;66.67;101293.94;5009773;28;96983;-78
2023/09/05 04:37:27;;;;;;;13.20;7.57;;;;;;;17.55;66.48;101273.94;5008357;28;100264;-78
2023/09/05 04:39:57;;;;;;;19.17;8.18;;;;;;;17.62;66.40;101285.97;5008915;28;100201;-78
2023/09/05 04:42:25;;;;;;;23.95;8.20;;;;;;;17.63;66.48;101286.88;5001097;28;96698;-78
2023/09/05 04:44:51;;;;;;;19.33;7.20;;;;;;;17.64;66.51;101286.78;5009420;28;97160;-78
2023/09/05 04:47:27;;;;;;;15.30;6.85;;;;;;;17.67;66.31;101285.78;5006494;28;98986;-78
2023/09/05 04:49:54;;;;;;;16.40;6.68;;;;;;;17.70;66.45;101290.94;5010035;28;99128;-78
2023/09/05 04:52:21;;;;;;;17.58;7.22;;;;;;;17.71;66.34;101289.97;5010623;28;97009;-78
2023/09/05 04:54:47;;;;;;;10.80;7.13;;;;;;;17.82;66.37;101289.50;5010428;28;96916;-77
2023/09/05 04:57:16;;;;;;;16.67;7.30;;;;;;;17.99;66.04;101299.31;5010083;28;99198;-77
2023/09/05 04:59:47;;;;;;;13.65;7.00;;;;;;;18.09;66.07;101292.59;5009129;28;98633;-77
2023/09/05 05:02:13;;;;;;;11.00;6.87;;;;;;;18.23;65.64;101284.78;5010130;28;97428;-78
2023/09/05 05:04:40;;;;;;;11.35;6.85;;;;;;;18.35;65.53;101291.25;5010169;28;97669;-78
2023/09/05 05:07:07;;;;;;;12.15;6.78;;;;;;;18.47;65.28;101293.31;5008751;28;98782;-78
2023/09/05 05:09:33;;;;;;;17.17;6.90;;;;;;;18.64;64.94;101295.06;5007771;28;98495;-78
2023/09/05 05:11:59;;;;;;;14.13;6.05;;;;;;;18.64;64.62;101287.09;5010119;28;97317;-77
2023/09/05 05:14:25;;;;;;;15.35;6.93;;;;;;;18.91;64.16;101298.13;5007844;28;97825;-77
2023/09/05 05:16:51;;;;;;;14.85;6.95;;;;;;;19.08;64.00;101302.56;5009802;28;99268;-77
2023/09/05 05:19:16;;;;;;;16.20;6.68;;;;;;;19.19;63.75;101294.81;5008622;28;98508;-77
2023/09/05 05:21:42;;;;;;;11.85;6.30;;;;;;;19.30;63.26;101296.03;5008756;28;97135;-77
2023/09/05 05:24:08;;;;;;;20.23;6.80;;;;;;;19.39;62.90;101303.50;5012488;28;97058;-78
2023/09/05 05:26:33;;;;;;;15.65;6.35;;;;;;;19.55;62.53;101292.88;5012391;28;98943;-81
2023/09/05 05:28:59;;;;;;;13.27;7.47;;;;;;;19.57;62.13;101299.81;5012971;28;97589;-78
2023/09/05 05:31:26;;;;;;;11.73;7.10;;;;;;;19.88;61.15;101311.44;5012961;28;96763;-77
2023/09/05 05:33:52;;;;;;;9.88;6.72;;;;;;;19.72;61.75;101311.44;5012288;28;96869;-77
2023/09/05 05:36:17;;;;;;;9.13;6.78;;;;;;;20.03;61.22;101307.88;5012333;28;99174;-77
2023/09/05 05:38:43;;;;;;;14.30;6.93;;;;;;;19.95;61.35;101311.94;5012484;28;98401;-77
2023/09/05 05:41:11;;;;;;;14.48;6.72;;;;;;;19.92;61.14;101310.31;5012823;28;97339;-78
2023/09/05 05:43:38;;;;;;;19.23;6.90;;;;;;;20.03;61.34;101299.88;5013474;27;96926;-78
2023/09/05 05:46:03;;;;;;;19.92;7.28;;;;;;;20.42;60.64;101306.50;5012327;28;98575;-77
2023/09/05 05:48:29;;;;;;;18.33;7.00;;;;;;;20.79;59.56;101306.97;5012939;28;98342;-77
2023/09/05 05:50:57;;;;;;;14.48;7.72;;;;;;;21.24;58.50;101303.25;5011996;28;96731;-79
2023/09/05 05:53:24;;;;;;;10.05;6.68;;;;;;;21.44;57.49;101311.84;5013159;28;96908;-76
2023/09/05 05:55:50;;;;;;;16.80;6.47;;;;;;;21.66;57.22;101319.31;5007471;28;98677;-76
2023/09/05 05:58:15;;;;;;;15.30;7.07;;;;;;;21.35;57.64;101317.72;5012508;28;98664;-76
2023/09/05 06:00:45;;;;;;;10.88;5.82;;;;;;;21.30;57.75;101309.16;5011988;28;96772;-76
2023/09/05 06:03:12;;;;;;;12.87;5.90;;;;;;;21.53;57.26;101310.41;5011076;28;96856;-77
2023/09/05 06:05:38;;;;;;;12.75;7.18;;;;;;;21.22;58.05;101309.63;5011806;28;98752;-75
2023/09/05 06:08:04;;;;;;;18.00;7.05;;;;;;;21.07;58.15;101313.28;5012145;28;98715;-76
2023/09/05 06:10:29;;;;;;;11.45;6.32;;;;;;;20.62;59.22;101307.97;4993573;28;97514;-76
2023/09/05 06:12:55;;;;;;;18.05;6.88;;;;;;;21.29;57.93;101302.09;5011950;28;97206;-76
2023/09/05 06:15:21;;;;;;;8.68;5.65;;;;;;;21.99;56.10;101307.34;5011628;28;99462;-76
2023/09/05 06:17:46;;;;;;;10.68;5.90;;;;;;;22.08;55.06;101304.09;5010808;28;98306;-76
2023/09/05 06:20:13;;;;;;;15.73;6.03;;;;;;;22.95;53.73;101306.19;5011862;28;97003;-76
2023/09/05 06:22:39;;;;;;;12.48;5.30;;;;;;;23.70;52.13;101311.50;5010659;28;96926;-76
2023/09/05 06:25:05;;;;;;;8.95;5.57;;;;;;;24.98;49.08;101308.00;5012528;28;99004;-77
2023/09/05 06:27:31;;;;;;;7.07;5.25;;;;;;;26.18;46.38;101303.69;5012451;28;98587;-76
2023/09/05 06:29:57;;;;;;;14.55;5.05;;;;;;;27.08;43.81;101306.66;5012634;28;97624;-75
2023/09/05 06:32:22;;;;;;;6.65;4.43;;;;;;;28.50;41.68;101301.91;5012602;28;97150;-75
2023/09/05 06:34:48;;;;;;;33.63;30.40;;;;;;;30.26;38.68;101303.59;5011316;28;98655;-75
2023/09/05 06:37:13;;;;;;;9.18;4.20;;;;;;;30.99;36.84;101299.69;5005696;28;98541;-75
2023/09/05 06:39:39;;;;;;;11.63;10.63;;;;;;;32.71;34.51;101297.28;4999429;28;97322;-75
2023/09/05 06:42:08;;;;;;;11.82;4.32;;;;;;;33.37;32.56;101287.88;5008033;28;96922;-75
2023/09/05 06:44:37;;;;;;;10.75;6.50;;;;;;;33.87;31.95;101289.28;4995005;28;100572;-75
2023/09/05 06:47:02;;;;;;;7.65;4.47;;;;;;;35.13;30.31;101277.66;5000752;28;97567;-75
2023/09/05 06:49:28;;;;;;;7.25;4.50;;;;;;;34.17;30.70;101290.22;5012161;28;97198;-75
2023/09/05 06:51:53;;;;;;;6.75;3.65;;;;;;;35.89;28.72;101279.16;5011997;28;97204;-75
2023/09/05 06:54:19;;;;;;;7.43;4.40;;;;;;;36.24;27.56;101285.56;5011736;28;98697;-76
2023/09/05 06:56:44;;;;;;;7.93;4.50;;;;;;;35.76;28.55;101267.06;5012448;28;98514;-76
2023/09/05 06:59:16;;;;;;;10.52;4.72;;;;;;;36.05;28.22;101265.25;5012082;28;97009;-76
2023/09/05 07:01:45;;;;;;;6.80;4.28;;;;;;;35.32;29.26;101278.94;4995212;28;96872;-76
2023/09/05 07:04:11;;;;;;;8.57;4.27;;;;;;;36.83;27.51;101282.44;5011607;28;99189;-76
2023/09/05 07:06:37;;;;;;;9.05;4.90;;;;;;;37.73;26.48;101282.38;5011336;28;97466;-76
2023/09/05 07:09:03;;;;;;;10.52;4.03;;;;;;;38.83;24.77;101272.63;5012054;28;96916;-76
2023/09/05 07:11:29;;;;;;;7.32;4.22;;;;;;;38.91;24.54;101282.56;5012062;28;97126;-76
2023/09/05 07:13:54;;;;;;;6.50;3.83;;;;;;;37.82;25.53;101272.94;5011786;28;98802;-76
2023/09/05 07:16:19;;;;;;;17.70;16.33;;;;;;;38.64;25.48;101279.03;5007937;28;98343;-76
2023/09/05 07:18:45;;;;;;;11.68;4.00;;;;;;;36.98;26.80;101276.00;5011530;28;96708;-76
2023/09/05 07:21:11;;;;;;;9.88;4.07;;;;;;;38.28;25.54;101283.06;5011296;28;96838;-76
2023/09/05 07:23:37;;;;;;;7.10;4.57;;;;;;;38.60;25.22;101286.00;5011546;28;98692;-77
2023/09/05 07:26:06;;;;;;;8.10;3.72;;;;;;;39.42;24.55;101275.41;5010822;28;98361;-76
2023/09/05 07:28:32;;;;;;;7.25;3.83;;;;;;;37.70;24.99;101275.44;5010970;28;97128;-76
2023/09/05 07:30:58;;;;;;;13.18;4.13;;;;;;;38.88;25.22;101269.28;5009638;28;97020;-76
2023/09/05 07:33:23;;;;;;;29.70;4.85;;;;;;;38.96;24.65;101281.94;5011100;28;98700;-76
2023/09/05 07:35:49;;;;;;;9.95;3.67;;;;;;;40.11;23.37;101282.75;5011308;28;97972;-77
2023/09/05 07:38:16;;;;;;;164.15;16.48;;;;;;;41.02;22.54;101283.13;5004296;28;97232;-76
2023/09/05 07:40:41;;;;;;;52.60;7.25;;;;;;;40.97;22.35;101277.47;5011314;28;96808;-76
2023/09/05 07:43:07;;;;;;;13.60;4.50;;;;;;;42.17;20.89;101277.44;5011320;28;98557;-77
2023/09/05 07:45:33;;;;;;;8.80;3.92;;;;;;;40.05;21.82;101281.72;5011098;28;98673;-76
2023/09/05 07:47:59;;;;;;;7.05;3.28;;;;;;;38.14;23.58;101279.50;5001839;28;97115;-77
2023/09/05 07:50:24;;;;;;;7.28;3.58;;;;;;;37.66;24.37;101279.63;5002073;28;96915;-77
2023/09/05 07:52:50;;;;;;;5.30;3.10;;;;;;;39.95;22.54;101277.81;4995629;28;99138;-77
2023/09/05 07:55:16;;;;;;;57.50;6.22;;;;;;;41.76;20.84;101281.06;5005544;28;98366;-77
2023/09/05 07:57:42;;;;;;;5.35;3.50;;;;;;;39.31;22.82;101276.97;5010953;28;96762;-76
2023/09/05 08:00:11;;;;;;;11.25;3.63;;;;;;;41.85;21.54;101269.47;5009033;28;97092;-77
2023/09/05 08:02:39;;;;;;;10.23;3.80;;;;;;;39.39;22.11;101273.97;5007971;28;98934;-76
2023/09/05 08:05:06;;;;;;;12.02;4.03;;;;;;;40.08;21.69;101272.19;5010565;28;98547;-77
2023/09/05 08:07:32;;;;;;;3.50;2.78;;;;;;;40.61;21.29;101271.72;5011600;28;96691;-76
2023/09/05 08:09:57;;;;;;;23.10;5.72;;;;;;;40.32;21.72;101270.56;5011265;28;96852;-77
2023/09/05 08:12:23;;;;;;;6.43;3.55;;;;;;;39.48;22.42;101269.06;5011275;28;98875;-76
2023/09/05 08:14:48;;;;;;;7.47;3.65;;;;;;;41.56;20.57;101275.88;5010247;28;98755;-75
2023/09/05 08:17:14;;;;;;;8.07;2.92;;;;;;;41.66;20.70;101276.16;5001864;28;97266;-76
2023/09/05 08:19:39;;;;;;;3.70;2.65;;;;;;;42.21;19.68;101272.28;5007329;28;97055;-76
2023/09/05 08:22:06;;;;;;;6.03;3.10;;;;;;;38.92;21.99;101278.75;4997745;28;98764;-76
2023/09/05 08:24:31;;;;;;;4.65;3.17;;;;;;;40.32;21.28;101267.81;5005938;28;98464;-76
2023/09/05 08:26:57;;;;;;;3.55;2.80;;;;;;;41.62;20.11;101258.41;5011203;28;97265;-76
2023/09/05 08:29:23;;;;;;;3.28;2.83;;;;;;;42.64;19.04;101268.31;5003040;28;96875;-76
2023/09/05 08:31:49;;;;;;;7.57;2.95;;;;;;;44.82;17.86;101278.03;5002879;28;99161;-77
2023/09/05 08:34:14;;;;;;;4.15;2.90;;;;;;;44.21;17.60;101264.13;5003526;28;98278;-77
2023/09/05 08:36:41;;;;;;;5.93;2.95;;;;;;;45.06;17.30;101261.97;4999176;28;96996;-77
2023/09/05 08:39:07;;;;;;;9.57;2.85;;;;;;;40.64;19.57;101267.69;4992706;28;97916;-79
2023/09/05 08:41:32;;;;;;;6.18;2.75;;;;;;;40.95;19.96;101255.69;5001962;28;98673;-81
2023/09/05 08:43:58;;;;;;;5.15;3.25;;;;;;;40.01;20.09;101247.53;4996448;28;99113;-79
2023/09/05 08:46:25;;;;;;;4.65;3.05;;;;;;;39.43;20.63;101260.63;5001875;28;97173;-77
2023/09/05 08:48:51;;;;;;;4.43;2.55;;;;;;;37.43;22.93;101271.75;5005798;28;98036;-76
2023/09/05 08:51:18;;;;;;;2.75;2.50;;;;;;;39.08;21.61;101264.56;5000748;28;98843;-77
2023/09/05 08:53:52;;;;;;;6.78;3.17;;;;;;;37.44;22.75;101261.66;5004849;28;98454;-77
2023/09/05 08:56:17;;;;;;;4.63;2.83;;;;;;;38.24;21.26;101270.84;5017157;28;96839;-77
2023/09/05 08:58:43;;;;;;;3.85;2.47;;;;;;;38.08;22.49;101266.66;5010349;28;98532;-76
2023/09/05 09:01:10;;;;;;;4.28;2.50;;;;;;;41.32;19.50;101252.91;5012590;28;98976;-76
2023/09/05 09:03:36;;;;;;;4.47;2.88;;;;;;;41.62;18.91;101252.88;5011228;28;98345;-78
2023/09/05 09:06:01;;;;;;;3.47;2.45;;;;;;;42.19;18.52;101253.22;5011357;28;96764;-79
2023/09/05 09:08:37;;;;;;;6.00;2.83;;;;;;;43.44;17.39;101255.63;5008735;28;97570;-81
2023/09/05 09:11:07;;;;;;;3.50;2.90;;;;;;;45.43;15.92;101247.44;5013854;28;98750;-81
2023/09/05 09:13:33;;;;;;;9.18;8.23;;;;;;;44.94;16.20;101251.03;5011466;28;98288;-83
2023/09/05 09:16:00;;;;;;;8.00;7.30;;;;;;;42.88;17.21;101250.66;5004934;28;97853;-80
2023/09/05 09:18:26;;;;;;;25.42;22.73;;;;;;;41.67;18.47;101241.16;5012407;28;97217;-77
2023/09/05 09:20:52;;;;;;;30.73;21.65;;;;;;;38.50;21.18;101239.84;5012642;28;99099;-77
2023/09/05 09:23:29;;;;;;;3.90;2.97;;;;;;;40.98;18.87;101232.34;5015081;28;98665;-77
2023/09/05 09:25:55;;;;;;;4.15;2.90;;;;;;;40.77;19.06;101233.69;5016325;28;98208;-77
2023/09/05 09:28:22;;;;;;;4.93;2.80;;;;;;;43.52;17.31;101225.66;5011020;28;96983;-77
2023/09/05 09:31:01;;;;;;;4.60;2.65;;;;;;;41.89;17.89;101225.78;5012316;28;98909;-77
2023/09/05 09:33:27;;;;;;;4.25;2.70;;;;;;;42.65;18.43;101229.47;5012422;28;98744;-78
2023/09/05 09:36:06;;;;;;;6.82;3.35;;;;;;;42.24;17.70;101228.53;5008103;28;98281;-78
2023/09/05 09:38:32;;;;;;;4.20;2.50;;;;;;;43.80;17.08;101230.28;5006360;28;97669;-76
2023/09/05 09:41:02;;;;;;;3.70;2.95;;;;;;;42.09;18.16;101230.09;5002584;28;98933;-76
2023/09/05 09:43:29;;;;;;;3.78;2.80;;;;;;;42.25;17.85;101232.13;5015036;28;99172;-75
2023/09/05 09:45:56;;;;;;;7.80;3.00;;;;;;;42.63;18.01;101223.34;5010727;28;96786;-76
2023/09/05 09:48:26;;;;;;;5.97;2.60;;;;;;;41.25;18.83;101219.09;5003129;28;96979;-75
2023/09/05 09:50:57;;;;;;;3.92;2.63;;;;;;;40.32;19.75;101211.94;5013197;28;99175;-75
2023/09/05 09:53:37;;;;;;;4.40;2.30;;;;;;;38.53;20.84;101211.16;5011140;28;99246;-75
2023/09/05 09:56:11;;;;;;;6.80;2.20;;;;;;;38.02;21.36;101221.75;5011307;28;96901;-77
2023/09/05 09:58:42;;;;;;;3.60;2.53;;;;;;;36.91;22.71;101218.50;5010571;28;96924;-73
2023/09/05 10:01:12;;;;;;;5.30;2.55;;;;;;;35.26;23.78;101210.66;5012446;27;98663;-72
2023/09/05 10:03:40;;;;;;;5.45;3.17;;;;;;;35.24;24.03;101208.13;5011941;28;98309;-72
2023/09/05 10:06:07;;;;;;;13.48;8.75;;;;;;;33.62;25.67;101211.53;5011496;28;96854;-72
2023/09/05 10:08:34;;;;;;;5.72;4.57;;;;;;;33.21;27.07;101211.78;5012809;28;97301;-72
2023/09/05 10:11:00;;;;;;;3.75;2.45;;;;;;;33.14;26.38;101206.22;5011963;27;98748;-72
2023/09/05 10:13:27;;;;;;;7.45;2.88;;;;;;;31.70;28.12;101217.84;5016134;28;98223;-72
2023/09/05 10:15:56;;;;;;;5.35;2.90;;;;;;;30.62;29.45;101205.97;5015331;27;97359;-72
2023/09/05 10:18:22;;;;;;;10.75;3.60;;;;;;;31.48;29.10;101205.81;5011705;28;97183;-72
2023/09/05 10:20:50;;;;;;;6.43;3.13;;;;;;;31.23;29.46;101207.56;5010811;28;98940;-72
2023/09/05 10:23:18;;;;;;;7.03;2.85;;;;;;;30.89;29.83;101208.50;5012462;28;97936;-71
2023/09/05 10:25:44;;;;;;;7.57;2.47;;;;;;;30.32;30.35;101208.19;5010190;28;97472;-71
2023/09/05 10:28:09;;;;;;;3.47;2.28;;;;;;;30.41;29.37;101203.66;5006582;28;96748;-72
2023/09/05 10:30:40;;;;;;;5.75;2.67;;;;;;;30.62;29.57;101195.13;5011582;28;98941;-75
2023/09/05 10:33:06;;;;;;;;;;;;;;;30.31;30.67;101206.50;5012773;28;98550;-75
2023/09/05 10:35:32;;;;;;;7.57;6.72;;;;;;;29.73;31.13;101201.59;5005091;28;97200;-75
2023/09/05 10:38:01;;;;;;;5.70;2.90;;;;;;;29.99;30.49;101196.22;5017969;27;97159;-75
2023/09/05 10:40:35;;;;;;;12.43;3.47;;;;;;;29.17;32.38;101208.97;5011204;28;97611;-75
2023/09/05 10:43:03;;;;;;;5.05;3.42;;;;;;;29.31;32.08;101213.84;5021596;28;98567;-76
2023/09/05 10:45:31;;;;;;;7.95;3.97;;;;;;;29.23;32.27;101202.09;5011765;28;97176;-75
2023/09/05 10:48:00;;;;;;;4.60;2.95;;;;;;;29.28;31.55;101197.94;5014368;28;97167;-75
2023/09/05 10:50:26;;;;;;;6.53;5.93;;;;;;;29.05;32.51;101205.63;5011297;28;98695;-75
2023/09/05 10:53:10;;;;;;;7.03;5.15;;;;;;;28.43;32.50;101190.94;5016881;28;98180;-75
2023/09/05 10:55:44;;;;;;;5.40;3.70;;;;;;;28.33;32.91;101196.38;5012791;28;97233;-76
2023/09/05 10:58:47;;;;;;;9.70;7.95;;;;;;;28.06;33.41;101190.88;5011745;28;97153;-75
2023/09/05 11:01:31;;;;;;;5.38;4.95;;;;;;;28.13;33.73;101192.84;5024466;28;98350;-76
2023/09/05 11:04:07;;;;;;;16.73;15.52;;;;;;;27.69;34.14;101184.38;5012591;28;98736;-75
2023/09/05 11:06:36;;;;;;;12.30;11.50;;;;;;;27.57;33.63;101179.25;5011782;28;96745;-75
2023/09/05 11:09:05;;;;;;;9.95;9.10;;;;;;;27.46;34.35;101189.19;5012253;28;97018;-75
2023/09/05 11:11:31;;;;;;;14.38;13.18;;;;;;;27.80;33.83;101182.53;5012414;28;98679;-75
2023/09/05 11:13:57;;;;;;;5.10;3.47;;;;;;;27.89;34.00;101169.03;5006143;28;98231;-75
2023/09/05 11:16:24;;;;;;;5.70;2.60;;;;;;;27.25;35.18;101173.09;5003258;28;97219;-75
2023/09/05 11:18:56;;;;;;;5.03;2.85;;;;;;;27.33;35.27;101176.97;5012407;28;97225;-75